American Star — WDD7311 — position and weather

sailwx.info

Track history (hours):
 
Tides and Currents Weather Stations Pressure Air Temp Water Temp Dewpoint Dewpoint Depression Visibility Wind Speed Wind Dir Waves Ship Positions

American Star

Owner: American Cruise Lines, Inc, Delmar, DE. More information available from US FCC via Universal Licensing System and Coast Guard Vessel Documentation Center.

Last reported at 2016-Nov-19 04:14 UTC. Time now 2016-Dec-11 04:18 UTC.
Position N 30°19' W 081°39'.
Warning: this ship's position is 22 days out of date.

Length 60 m; draft 2.1 m.

Type: Ship (hazmat cat C). MMSI: 367184740.

Date/timePositionNaut miles runAvg speedWind from/ knotsBaromVisibWave heightAir tempDewpointWater temp
2016-Nov-19 04:14N 30°19' W 081°39'1 0.6
2016-Nov-19 03:23N 30°19' W 081°39'6 6.8
2016-Nov-19 02:33N 30°24' W 081°36'10 7.7
2016-Nov-19 01:19N 30°24' W 081°25'45 2.3
2016-Nov-18 05:32N 31°09' W 081°30'0 0.0
2016-Nov-18 04:33N 31°09' W 081°30'5 0.2
2016-Nov-17 02:33N 31°13' W 081°26'48 3.4
2016-Nov-16 12:22N 31°57' W 081°04'8 2.8
2016-Nov-16 09:33N 32°04' W 081°00'2 2.2
2016-Nov-16 08:33N 32°05' W 081°02'3 2.7
2016-Nov-16 07:33N 32°05' W 081°06'0 0.0
2016-Nov-16 06:33N 32°05' W 081°06'0 0.0
2016-Nov-16 04:33N 32°05' W 081°06'0 0.0
2016-Nov-16 03:33N 32°05' W 081°06'0 0.0
2016-Nov-16 02:33N 32°05' W 081°06'0 0.0
2016-Nov-16 01:33N 32°05' W 081°06'0 0.0
2016-Nov-15 21:33N 32°05' W 081°06'0 0.0
2016-Nov-15 19:33N 32°05' W 081°06'0 0.0
2016-Nov-15 18:33N 32°05' W 081°06'0 0.0
2016-Nov-15 13:33N 32°05' W 081°06'0 0.0
2016-Nov-15 12:33N 32°05' W 081°06'0 0.0
2016-Nov-15 11:33N 32°05' W 081°06'0 0.0
2016-Nov-15 10:33N 32°05' W 081°06'0 0.0
2016-Nov-15 07:33N 32°05' W 081°06'0 0.0
2016-Nov-15 06:33N 32°05' W 081°06'0 0.0
2016-Nov-15 05:53N 32°05' W 081°06'0 0.0
2016-Nov-15 03:33N 32°05' W 081°06'0 0.0
2016-Nov-15 02:33N 32°05' W 081°06'3 1.3
2016-Nov-15 00:33N 32°05' W 081°03'7 8.0
2016-Nov-14 23:42N 32°05' W 080°55'6 0.9
2016-Nov-14 17:22N 32°08' W 080°49'0 0.0
2016-Nov-14 16:16N 32°08' W 080°49'0 0.0
2016-Nov-14 15:33N 32°08' W 080°49'  
2016-Nov-10 00:04N 34°37' W 077°00'1510.1
2016-Nov-09 22:33N 34°39' W 076°42'3 1.6
2016-Nov-09 20:37N 34°42' W 076°41'0 0.0
2016-Nov-09 19:52N 34°42' W 076°41'1 1.2
2016-Nov-09 19:06N 34°43' W 076°42'4 7.0
2016-Nov-09 18:33N 34°47' W 076°41'7 6.8
2016-Nov-09 17:33N 34°54' W 076°41'18 8.4
2016-Nov-09 15:28N 35°09' W 076°30'  
Track history (hours):
 
Tides and Currents Weather Stations Pressure Air Temp Water Temp Dewpoint Dewpoint Depression Visibility Wind Speed Wind Dir Waves Ship Positions

American Star

Owner: American Cruise Lines, Inc, Delmar, DE. More information available from US FCC via Universal Licensing System and Coast Guard Vessel Documentation Center.

Last reported at 2016-Nov-19 04:14 UTC. Time now 2016-Dec-11 04:18 UTC.
Position N 30°19' W 081°39'.
Warning: this ship's position is 22 days out of date.

Length 60 m; draft 2.1 m.

Type: Ship (hazmat cat C). MMSI: 367184740.

Date/timePositionNaut miles runAvg speedWind from/ knotsBaromVisibWave heightAir tempDewpointWater temp
2016-Nov-19 04:14N 30°19' W 081°39'1 0.6
2016-Nov-19 03:23N 30°19' W 081°39'6 6.8
2016-Nov-19 02:33N 30°24' W 081°36'10 7.7
2016-Nov-19 01:19N 30°24' W 081°25'45 2.3
2016-Nov-18 05:32N 31°09' W 081°30'0 0.0
2016-Nov-18 04:33N 31°09' W 081°30'5 0.2
2016-Nov-17 02:33N 31°13' W 081°26'48 3.4
2016-Nov-16 12:22N 31°57' W 081°04'8 2.8
2016-Nov-16 09:33N 32°04' W 081°00'2 2.2
2016-Nov-16 08:33N 32°05' W 081°02'3 2.7
2016-Nov-16 07:33N 32°05' W 081°06'0 0.0
2016-Nov-16 06:33N 32°05' W 081°06'0 0.0
2016-Nov-16 04:33N 32°05' W 081°06'0 0.0
2016-Nov-16 03:33N 32°05' W 081°06'0 0.0
2016-Nov-16 02:33N 32°05' W 081°06'0 0.0
2016-Nov-16 01:33N 32°05' W 081°06'0 0.0
2016-Nov-15 21:33N 32°05' W 081°06'0 0.0
2016-Nov-15 19:33N 32°05' W 081°06'0 0.0
2016-Nov-15 18:33N 32°05' W 081°06'0 0.0
2016-Nov-15 13:33N 32°05' W 081°06'0 0.0
2016-Nov-15 12:33N 32°05' W 081°06'0 0.0
2016-Nov-15 11:33N 32°05' W 081°06'0 0.0
2016-Nov-15 10:33N 32°05' W 081°06'0 0.0
2016-Nov-15 07:33N 32°05' W 081°06'0 0.0
2016-Nov-15 06:33N 32°05' W 081°06'0 0.0
2016-Nov-15 05:53N 32°05' W 081°06'0 0.0
2016-Nov-15 03:33N 32°05' W 081°06'0 0.0
2016-Nov-15 02:33N 32°05' W 081°06'3 1.3
2016-Nov-15 00:33N 32°05' W 081°03'7 8.0
2016-Nov-14 23:42N 32°05' W 080°55'6 0.9
2016-Nov-14 17:22N 32°08' W 080°49'0 0.0
2016-Nov-14 16:16N 32°08' W 080°49'0 0.0
2016-Nov-14 15:33N 32°08' W 080°49'  
2016-Nov-10 00:04N 34°37' W 077°00'1510.1
2016-Nov-09 22:33N 34°39' W 076°42'3 1.6
2016-Nov-09 20:37N 34°42' W 076°41'0 0.0
2016-Nov-09 19:52N 34°42' W 076°41'1 1.2
2016-Nov-09 19:06N 34°43' W 076°42'4 7.0
2016-Nov-09 18:33N 34°47' W 076°41'7 6.8
2016-Nov-09 17:33N 34°54' W 076°41'18 8.4
2016-Nov-09 15:28N 35°09' W 076°30'  

Dump ship's entire track history